sensor_id;sensor_type;location;lat;lon;timestamp;P1;durP1;ratioP1;P2;durP2;ratioP2
71979;SDS011;59853;48.190;11.860;2022-09-06T00:00:20;9.80;;;5.47;;
71979;SDS011;59853;48.190;11.860;2022-09-06T00:02:46;9.40;;;5.22;;
71979;SDS011;59853;48.190;11.860;2022-09-06T00:05:12;8.52;;;5.10;;
71979;SDS011;59853;48.190;11.860;2022-09-06T00:07:38;7.55;;;4.28;;
71979;SDS011;59853;48.190;11.860;2022-09-06T00:10:04;8.82;;;4.07;;
71979;SDS011;59853;48.190;11.860;2022-09-06T00:12:30;5.47;;;3.88;;
71979;SDS011;59853;48.190;11.860;2022-09-06T00:14:56;5.90;;;4.07;;
71979;SDS011;59853;48.190;11.860;2022-09-06T00:17:21;8.00;;;4.20;;
71979;SDS011;59853;48.190;11.860;2022-09-06T00:19:47;7.03;;;3.92;;
71979;SDS011;59853;48.190;11.860;2022-09-06T00:22:12;7.00;;;4.18;;
71979;SDS011;59853;48.190;11.860;2022-09-06T00:24:38;5.53;;;3.85;;
71979;SDS011;59853;48.190;11.860;2022-09-06T00:27:03;6.57;;;4.40;;
71979;SDS011;59853;48.190;11.860;2022-09-06T00:29:29;5.40;;;3.60;;
71979;SDS011;59853;48.190;11.860;2022-09-06T00:31:55;5.88;;;3.95;;
71979;SDS011;59853;48.190;11.860;2022-09-06T00:34:20;5.78;;;4.00;;
71979;SDS011;59853;48.190;11.860;2022-09-06T00:36:46;6.03;;;3.95;;
71979;SDS011;59853;48.190;11.860;2022-09-06T00:39:11;5.95;;;3.90;;
71979;SDS011;59853;48.190;11.860;2022-09-06T00:41:37;6.13;;;4.22;;
71979;SDS011;59853;48.190;11.860;2022-09-06T00:44:02;5.05;;;3.83;;
71979;SDS011;59853;48.190;11.860;2022-09-06T00:46:28;5.15;;;3.40;;
71979;SDS011;59853;48.190;11.860;2022-09-06T00:48:58;4.68;;;3.40;;
71979;SDS011;59853;48.190;11.860;2022-09-06T00:51:29;9.93;;;4.15;;
71979;SDS011;59853;48.190;11.860;2022-09-06T00:53:55;6.90;;;3.72;;
71979;SDS011;59853;48.190;11.860;2022-09-06T00:56:22;5.45;;;3.67;;
71979;SDS011;59853;48.190;11.860;2022-09-06T00:58:47;4.85;;;3.45;;
71979;SDS011;59853;48.190;11.860;2022-09-06T01:01:13;6.65;;;3.78;;
71979;SDS011;59853;48.190;11.860;2022-09-06T01:03:39;4.93;;;3.75;;
71979;SDS011;59853;48.190;11.860;2022-09-06T01:12:27;6.05;;;3.60;;
71979;SDS011;59853;48.190;11.860;2022-09-06T01:14:41;6.43;;;3.75;;
71979;SDS011;59853;48.190;11.860;2022-09-06T01:17:49;6.00;;;3.72;;
71979;SDS011;59853;48.190;11.860;2022-09-06T01:28:29;6.10;;;4.05;;
71979;SDS011;59853;48.190;11.860;2022-09-06T01:36:02;4.90;;;3.72;;
71979;SDS011;59853;48.190;11.860;2022-09-06T01:38:30;7.07;;;4.10;;
71979;SDS011;59853;48.190;11.860;2022-09-06T01:40:56;6.50;;;4.03;;
71979;SDS011;59853;48.190;11.860;2022-09-06T01:43:23;6.68;;;4.13;;
71979;SDS011;59853;48.190;11.860;2022-09-06T02:04:27;7.13;;;4.22;;
71979;SDS011;59853;48.190;11.860;2022-09-06T02:07:02;5.13;;;3.63;;
71979;SDS011;59853;48.190;11.860;2022-09-06T02:09:56;6.88;;;4.00;;
71979;SDS011;59853;48.190;11.860;2022-09-06T02:12:24;7.05;;;3.97;;
71979;SDS011;59853;48.190;11.860;2022-09-06T02:14:54;6.30;;;4.18;;
71979;SDS011;59853;48.190;11.860;2022-09-06T02:17:22;6.68;;;4.03;;
71979;SDS011;59853;48.190;11.860;2022-09-06T02:19:52;7.13;;;4.30;;
71979;SDS011;59853;48.190;11.860;2022-09-06T02:22:21;6.30;;;4.22;;
71979;SDS011;59853;48.190;11.860;2022-09-06T02:24:48;8.95;;;5.07;;
71979;SDS011;59853;48.190;11.860;2022-09-06T02:27:15;6.85;;;4.32;;
71979;SDS011;59853;48.190;11.860;2022-09-06T02:29:40;5.70;;;3.90;;
71979;SDS011;59853;48.190;11.860;2022-09-06T02:34:35;5.80;;;3.20;;
71979;SDS011;59853;48.190;11.860;2022-09-06T02:37:01;6.70;;;3.50;;
71979;SDS011;59853;48.190;11.860;2022-09-06T02:39:26;12.27;;;4.50;;
71979;SDS011;59853;48.190;11.860;2022-09-06T02:41:52;6.18;;;4.10;;
71979;SDS011;59853;48.190;11.860;2022-09-06T02:44:17;6.47;;;4.15;;
71979;SDS011;59853;48.190;11.860;2022-09-06T02:46:42;6.55;;;4.28;;
71979;SDS011;59853;48.190;11.860;2022-09-06T02:49:08;7.32;;;4.82;;
71979;SDS011;59853;48.190;11.860;2022-09-06T02:51:37;11.43;;;5.88;;
71979;SDS011;59853;48.190;11.860;2022-09-06T02:54:03;7.53;;;4.97;;
71979;SDS011;59853;48.190;11.860;2022-09-06T02:56:29;7.18;;;4.72;;
71979;SDS011;59853;48.190;11.860;2022-09-06T02:58:55;6.78;;;4.13;;
71979;SDS011;59853;48.190;11.860;2022-09-06T03:01:20;5.53;;;4.20;;
71979;SDS011;59853;48.190;11.860;2022-09-06T03:03:46;5.82;;;4.30;;
71979;SDS011;59853;48.190;11.860;2022-09-06T03:06:11;6.90;;;4.50;;
71979;SDS011;59853;48.190;11.860;2022-09-06T03:08:36;6.20;;;3.47;;
71979;SDS011;59853;48.190;11.860;2022-09-06T03:11:02;6.38;;;3.72;;
71979;SDS011;59853;48.190;11.860;2022-09-06T03:13:27;6.10;;;4.00;;
71979;SDS011;59853;48.190;11.860;2022-09-06T03:15:53;6.30;;;3.90;;
71979;SDS011;59853;48.190;11.860;2022-09-06T03:18:20;6.43;;;3.80;;
71979;SDS011;59853;48.190;11.860;2022-09-06T03:20:50;4.93;;;3.75;;
71979;SDS011;59853;48.190;11.860;2022-09-06T03:23:16;5.53;;;3.67;;
71979;SDS011;59853;48.190;11.860;2022-09-06T03:25:42;6.88;;;4.03;;
71979;SDS011;59853;48.190;11.860;2022-09-06T03:28:08;6.95;;;3.90;;
71979;SDS011;59853;48.190;11.860;2022-09-06T03:30:34;5.85;;;3.80;;
71979;SDS011;59853;48.190;11.860;2022-09-06T03:32:59;6.20;;;3.75;;
71979;SDS011;59853;48.190;11.860;2022-09-06T03:35:25;6.10;;;3.92;;
71979;SDS011;59853;48.190;11.860;2022-09-06T03:37:50;6.13;;;3.67;;
71979;SDS011;59853;48.190;11.860;2022-09-06T03:40:15;5.63;;;3.97;;
71979;SDS011;59853;48.190;11.860;2022-09-06T03:42:41;7.05;;;4.50;;
71979;SDS011;59853;48.190;11.860;2022-09-06T03:45:06;6.53;;;3.58;;
71979;SDS011;59853;48.190;11.860;2022-09-06T03:47:32;4.63;;;3.60;;
71979;SDS011;59853;48.190;11.860;2022-09-06T03:49:57;7.43;;;3.50;;
71979;SDS011;59853;48.190;11.860;2022-09-06T03:52:23;5.82;;;3.33;;
71979;SDS011;59853;48.190;11.860;2022-09-06T03:54:48;6.15;;;3.28;;
71979;SDS011;59853;48.190;11.860;2022-09-06T03:57:13;6.28;;;3.95;;
71979;SDS011;59853;48.190;11.860;2022-09-06T03:59:39;6.00;;;3.88;;
71979;SDS011;59853;48.190;11.860;2022-09-06T04:02:04;7.38;;;3.90;;
71979;SDS011;59853;48.190;11.860;2022-09-06T04:04:30;6.50;;;4.00;;
71979;SDS011;59853;48.190;11.860;2022-09-06T04:06:55;6.95;;;4.00;;
71979;SDS011;59853;48.190;11.860;2022-09-06T04:09:21;6.68;;;3.33;;
71979;SDS011;59853;48.190;11.860;2022-09-06T04:11:46;5.15;;;3.58;;
71979;SDS011;59853;48.190;11.860;2022-09-06T04:14:12;6.30;;;4.10;;
71979;SDS011;59853;48.190;11.860;2022-09-06T04:16:37;6.43;;;3.80;;
71979;SDS011;59853;48.190;11.860;2022-09-06T04:19:02;6.40;;;3.83;;
71979;SDS011;59853;48.190;11.860;2022-09-06T04:21:28;5.78;;;4.00;;
71979;SDS011;59853;48.190;11.860;2022-09-06T04:23:54;6.18;;;3.13;;
71979;SDS011;59853;48.190;11.860;2022-09-06T04:26:19;7.50;;;4.13;;
71979;SDS011;59853;48.190;11.860;2022-09-06T04:28:45;7.88;;;4.50;;
71979;SDS011;59853;48.190;11.860;2022-09-06T04:31:10;7.13;;;3.95;;
71979;SDS011;59853;48.190;11.860;2022-09-06T04:33:36;6.47;;;3.78;;
71979;SDS011;59853;48.190;11.860;2022-09-06T04:36:03;5.70;;;3.65;;
71979;SDS011;59853;48.190;11.860;2022-09-06T04:38:33;6.40;;;4.22;;
71979;SDS011;59853;48.190;11.860;2022-09-06T04:41:01;5.47;;;3.88;;
71979;SDS011;59853;48.190;11.860;2022-09-06T04:43:26;7.38;;;3.70;;
71979;SDS011;59853;48.190;11.860;2022-09-06T04:45:52;6.65;;;3.65;;
71979;SDS011;59853;48.190;11.860;2022-09-06T04:48:17;6.78;;;3.53;;
71979;SDS011;59853;48.190;11.860;2022-09-06T04:50:43;6.95;;;3.97;;
71979;SDS011;59853;48.190;11.860;2022-09-06T04:53:08;8.60;;;3.65;;
71979;SDS011;59853;48.190;11.860;2022-09-06T04:55:35;7.53;;;3.45;;
71979;SDS011;59853;48.190;11.860;2022-09-06T04:58:01;5.28;;;3.05;;
71979;SDS011;59853;48.190;11.860;2022-09-06T05:00:28;4.65;;;3.00;;
71979;SDS011;59853;48.190;11.860;2022-09-06T05:02:54;7.07;;;3.15;;
71979;SDS011;59853;48.190;11.860;2022-09-06T05:05:20;6.82;;;3.45;;
71979;SDS011;59853;48.190;11.860;2022-09-06T05:07:46;5.25;;;3.15;;
71979;SDS011;59853;48.190;11.860;2022-09-06T05:10:12;6.45;;;3.53;;
71979;SDS011;59853;48.190;11.860;2022-09-06T05:12:37;5.55;;;3.25;;
71979;SDS011;59853;48.190;11.860;2022-09-06T05:15:02;7.25;;;4.30;;
71979;SDS011;59853;48.190;11.860;2022-09-06T05:17:28;6.47;;;3.70;;
71979;SDS011;59853;48.190;11.860;2022-09-06T05:19:54;7.05;;;3.67;;
71979;SDS011;59853;48.190;11.860;2022-09-06T05:22:21;7.72;;;4.20;;
71979;SDS011;59853;48.190;11.860;2022-09-06T05:24:46;10.98;;;4.50;;
71979;SDS011;59853;48.190;11.860;2022-09-06T05:27:12;8.00;;;4.93;;
71979;SDS011;59853;48.190;11.860;2022-09-06T05:29:38;7.63;;;4.43;;
71979;SDS011;59853;48.190;11.860;2022-09-06T05:32:03;6.78;;;4.10;;
71979;SDS011;59853;48.190;11.860;2022-09-06T05:34:29;7.78;;;4.72;;
71979;SDS011;59853;48.190;11.860;2022-09-06T05:36:54;7.55;;;4.97;;
71979;SDS011;59853;48.190;11.860;2022-09-06T05:39:20;7.78;;;4.38;;
71979;SDS011;59853;48.190;11.860;2022-09-06T05:41:46;8.57;;;4.65;;
71979;SDS011;59853;48.190;11.860;2022-09-06T05:44:11;8.88;;;4.53;;
71979;SDS011;59853;48.190;11.860;2022-09-06T05:46:44;6.10;;;4.60;;
71979;SDS011;59853;48.190;11.860;2022-09-06T05:49:10;7.13;;;4.43;;
71979;SDS011;59853;48.190;11.860;2022-09-06T05:51:36;6.70;;;4.63;;
71979;SDS011;59853;48.190;11.860;2022-09-06T05:54:02;8.55;;;5.00;;
71979;SDS011;59853;48.190;11.860;2022-09-06T05:56:27;7.05;;;4.30;;
71979;SDS011;59853;48.190;11.860;2022-09-06T05:58:53;7.63;;;4.43;;
71979;SDS011;59853;48.190;11.860;2022-09-06T06:01:19;7.63;;;4.70;;
71979;SDS011;59853;48.190;11.860;2022-09-06T06:03:51;6.65;;;4.20;;
71979;SDS011;59853;48.190;11.860;2022-09-06T06:06:27;10.55;;;5.93;;
71979;SDS011;59853;48.190;11.860;2022-09-06T06:08:54;16.10;;;8.00;;
71979;SDS011;59853;48.190;11.860;2022-09-06T06:11:20;9.45;;;5.38;;
71979;SDS011;59853;48.190;11.860;2022-09-06T06:13:46;5.72;;;4.13;;
71979;SDS011;59853;48.190;11.860;2022-09-06T06:16:12;6.75;;;4.97;;
71979;SDS011;59853;48.190;11.860;2022-09-06T06:18:39;6.43;;;4.22;;
71979;SDS011;59853;48.190;11.860;2022-09-06T06:21:12;7.20;;;4.97;;
71979;SDS011;59853;48.190;11.860;2022-09-06T06:23:39;6.47;;;4.50;;
71979;SDS011;59853;48.190;11.860;2022-09-06T06:26:06;10.38;;;4.95;;
71979;SDS011;59853;48.190;11.860;2022-09-06T06:28:32;6.78;;;3.88;;
71979;SDS011;59853;48.190;11.860;2022-09-06T06:30:59;7.60;;;3.95;;
71979;SDS011;59853;48.190;11.860;2022-09-06T06:33:25;8.88;;;4.03;;
71979;SDS011;59853;48.190;11.860;2022-09-06T06:35:55;8.43;;;4.28;;
71979;SDS011;59853;48.190;11.860;2022-09-06T06:38:21;6.50;;;3.90;;
71979;SDS011;59853;48.190;11.860;2022-09-06T06:40:46;6.53;;;3.83;;
71979;SDS011;59853;48.190;11.860;2022-09-06T06:43:12;5.65;;;3.10;;
71979;SDS011;59853;48.190;11.860;2022-09-06T06:45:37;4.25;;;2.72;;
71979;SDS011;59853;48.190;11.860;2022-09-06T06:48:02;6.07;;;3.03;;
71979;SDS011;59853;48.190;11.860;2022-09-06T06:50:28;4.82;;;3.10;;
71979;SDS011;59853;48.190;11.860;2022-09-06T06:52:53;5.82;;;3.15;;
71979;SDS011;59853;48.190;11.860;2022-09-06T06:55:18;6.13;;;3.00;;
71979;SDS011;59853;48.190;11.860;2022-09-06T06:57:44;4.30;;;3.05;;
71979;SDS011;59853;48.190;11.860;2022-09-06T07:00:09;4.13;;;2.88;;
71979;SDS011;59853;48.190;11.860;2022-09-06T07:02:35;6.28;;;3.28;;
71979;SDS011;59853;48.190;11.860;2022-09-06T07:05:00;6.00;;;3.13;;
71979;SDS011;59853;48.190;11.860;2022-09-06T07:07:26;5.32;;;3.22;;
71979;SDS011;59853;48.190;11.860;2022-09-06T07:09:51;5.20;;;3.08;;
71979;SDS011;59853;48.190;11.860;2022-09-06T07:12:17;5.40;;;2.80;;
71979;SDS011;59853;48.190;11.860;2022-09-06T07:14:42;5.40;;;3.10;;
71979;SDS011;59853;48.190;11.860;2022-09-06T07:17:07;5.10;;;2.95;;
71979;SDS011;59853;48.190;11.860;2022-09-06T07:19:33;4.25;;;2.78;;
71979;SDS011;59853;48.190;11.860;2022-09-06T07:21:58;4.65;;;2.95;;
71979;SDS011;59853;48.190;11.860;2022-09-06T07:24:24;3.88;;;2.80;;
71979;SDS011;59853;48.190;11.860;2022-09-06T07:26:49;4.20;;;2.50;;
71979;SDS011;59853;48.190;11.860;2022-09-06T07:29:14;4.25;;;2.80;;
71979;SDS011;59853;48.190;11.860;2022-09-06T07:31:40;5.90;;;2.55;;
71979;SDS011;59853;48.190;11.860;2022-09-06T07:34:06;3.75;;;2.40;;
71979;SDS011;59853;48.190;11.860;2022-09-06T07:36:31;6.53;;;2.60;;
71979;SDS011;59853;48.190;11.860;2022-09-06T07:38:57;7.20;;;2.53;;
71979;SDS011;59853;48.190;11.860;2022-09-06T07:41:22;4.60;;;2.33;;
71979;SDS011;59853;48.190;11.860;2022-09-06T07:43:51;5.78;;;2.70;;
71979;SDS011;59853;48.190;11.860;2022-09-06T07:46:18;3.00;;;2.00;;
71979;SDS011;59853;48.190;11.860;2022-09-06T07:48:47;3.40;;;2.47;;
71979;SDS011;59853;48.190;11.860;2022-09-06T07:51:18;5.32;;;2.20;;
71979;SDS011;59853;48.190;11.860;2022-09-06T07:53:49;3.20;;;2.03;;
71979;SDS011;59853;48.190;11.860;2022-09-06T07:56:18;6.43;;;2.47;;
71979;SDS011;59853;48.190;11.860;2022-09-06T07:58:46;3.60;;;1.90;;
71979;SDS011;59853;48.190;11.860;2022-09-06T08:03:39;4.22;;;1.50;;
71979;SDS011;59853;48.190;11.860;2022-09-06T08:06:05;6.60;;;1.40;;
71979;SDS011;59853;48.190;11.860;2022-09-06T08:08:30;4.57;;;1.65;;
71979;SDS011;59853;48.190;11.860;2022-09-06T08:10:57;3.88;;;1.50;;
71979;SDS011;59853;48.190;11.860;2022-09-06T08:13:22;3.55;;;1.27;;
71979;SDS011;59853;48.190;11.860;2022-09-06T08:15:47;2.78;;;1.17;;
71979;SDS011;59853;48.190;11.860;2022-09-06T08:18:13;2.50;;;1.25;;
71979;SDS011;59853;48.190;11.860;2022-09-06T08:20:38;4.00;;;1.45;;
71979;SDS011;59853;48.190;11.860;2022-09-06T08:23:09;2.85;;;1.50;;
71979;SDS011;59853;48.190;11.860;2022-09-06T08:25:35;4.18;;;1.35;;
71979;SDS011;59853;48.190;11.860;2022-09-06T08:28:00;4.00;;;1.45;;
71979;SDS011;59853;48.190;11.860;2022-09-06T08:30:25;3.10;;;1.42;;
71979;SDS011;59853;48.190;11.860;2022-09-06T08:32:52;3.45;;;1.30;;
71979;SDS011;59853;48.190;11.860;2022-09-06T08:35:18;3.92;;;1.42;;
71979;SDS011;59853;48.190;11.860;2022-09-06T08:37:43;2.15;;;1.23;;
71979;SDS011;59853;48.190;11.860;2022-09-06T08:40:08;1.80;;;1.30;;
71979;SDS011;59853;48.190;11.860;2022-09-06T08:42:36;2.47;;;1.30;;
71979;SDS011;59853;48.190;11.860;2022-09-06T08:45:03;2.42;;;1.30;;
71979;SDS011;59853;48.190;11.860;2022-09-06T08:47:33;3.13;;;1.20;;
71979;SDS011;59853;48.190;11.860;2022-09-06T08:50:05;3.00;;;1.25;;
71979;SDS011;59853;48.190;11.860;2022-09-06T08:52:42;1.77;;;1.02;;
71979;SDS011;59853;48.190;11.860;2022-09-06T09:00:23;2.00;;;1.10;;
71979;SDS011;59853;48.190;11.860;2022-09-06T09:02:50;2.78;;;1.13;;
71979;SDS011;59853;48.190;11.860;2022-09-06T09:05:34;3.90;;;1.40;;
71979;SDS011;59853;48.190;11.860;2022-09-06T09:13:32;2.97;;;1.52;;
71979;SDS011;59853;48.190;11.860;2022-09-06T09:16:00;4.03;;;1.25;;
71979;SDS011;59853;48.190;11.860;2022-09-06T09:18:32;2.72;;;1.10;;
71979;SDS011;59853;48.190;11.860;2022-09-06T09:21:00;2.97;;;1.08;;
71979;SDS011;59853;48.190;11.860;2022-09-06T09:23:27;2.00;;;1.10;;
71979;SDS011;59853;48.190;11.860;2022-09-06T09:25:53;4.53;;;1.15;;
71979;SDS011;59853;48.190;11.860;2022-09-06T09:28:26;4.03;;;1.20;;
71979;SDS011;59853;48.190;11.860;2022-09-06T09:30:53;2.08;;;1.00;;
71979;SDS011;59853;48.190;11.860;2022-09-06T09:33:20;1.67;;;0.90;;
71979;SDS011;59853;48.190;11.860;2022-09-06T09:35:47;2.20;;;1.10;;
71979;SDS011;59853;48.190;11.860;2022-09-06T09:38:17;4.55;;;1.27;;
71979;SDS011;59853;48.190;11.860;2022-09-06T09:41:03;4.53;;;1.10;;
71979;SDS011;59853;48.190;11.860;2022-09-06T09:43:30;2.38;;;1.00;;
71979;SDS011;59853;48.190;11.860;2022-09-06T09:48:33;3.45;;;1.10;;
71979;SDS011;59853;48.190;11.860;2022-09-06T09:51:15;5.43;;;1.20;;
71979;SDS011;59853;48.190;11.860;2022-09-06T09:53:57;2.40;;;0.90;;
71979;SDS011;59853;48.190;11.860;2022-09-06T09:59:04;10.93;;;6.75;;
71979;SDS011;59853;48.190;11.860;2022-09-06T10:01:32;2.47;;;1.30;;
71979;SDS011;59853;48.190;11.860;2022-09-06T10:04:01;3.78;;;0.98;;
71979;SDS011;59853;48.190;11.860;2022-09-06T10:06:29;4.75;;;1.15;;
71979;SDS011;59853;48.190;11.860;2022-09-06T10:08:55;4.90;;;1.10;;
71979;SDS011;59853;48.190;11.860;2022-09-06T10:11:36;2.47;;;0.80;;
71979;SDS011;59853;48.190;11.860;2022-09-06T10:14:28;1.80;;;0.70;;
71979;SDS011;59853;48.190;11.860;2022-09-06T10:17:34;1.67;;;0.70;;
71979;SDS011;59853;48.190;11.860;2022-09-06T10:20:03;2.13;;;0.70;;
71979;SDS011;59853;48.190;11.860;2022-09-06T10:27:52;2.35;;;0.77;;
71979;SDS011;59853;48.190;11.860;2022-09-06T10:30:23;2.78;;;0.90;;
71979;SDS011;59853;48.190;11.860;2022-09-06T10:32:59;3.17;;;0.82;;
71979;SDS011;59853;48.190;11.860;2022-09-06T10:35:31;2.35;;;0.80;;
71979;SDS011;59853;48.190;11.860;2022-09-06T10:40:55;1.45;;;0.77;;
71979;SDS011;59853;48.190;11.860;2022-09-06T10:43:31;1.70;;;0.90;;
71979;SDS011;59853;48.190;11.860;2022-09-06T10:46:13;2.70;;;0.98;;
71979;SDS011;59853;48.190;11.860;2022-09-06T10:48:40;2.72;;;0.90;;
71979;SDS011;59853;48.190;11.860;2022-09-06T10:53:54;2.72;;;1.00;;
71979;SDS011;59853;48.190;11.860;2022-09-06T10:56:46;2.08;;;1.08;;
71979;SDS011;59853;48.190;11.860;2022-09-06T10:59:25;1.70;;;1.02;;
71979;SDS011;59853;48.190;11.860;2022-09-06T11:04:22;2.42;;;0.95;;
71979;SDS011;59853;48.190;11.860;2022-09-06T11:06:52;2.85;;;1.13;;
71979;SDS011;59853;48.190;11.860;2022-09-06T11:09:32;2.95;;;1.02;;
71979;SDS011;59853;48.190;11.860;2022-09-06T11:12:08;1.80;;;0.95;;
71979;SDS011;59853;48.190;11.860;2022-09-06T11:14:36;1.77;;;0.80;;
71979;SDS011;59853;48.190;11.860;2022-09-06T11:17:04;1.95;;;0.95;;
71979;SDS011;59853;48.190;11.860;2022-09-06T11:19:37;1.75;;;0.70;;
71979;SDS011;59853;48.190;11.860;2022-09-06T11:28:06;2.83;;;1.42;;
71979;SDS011;59853;48.190;11.860;2022-09-06T11:30:34;3.42;;;1.42;;
71979;SDS011;59853;48.190;11.860;2022-09-06T11:33:12;2.58;;;0.95;;
71979;SDS011;59853;48.190;11.860;2022-09-06T11:35:45;2.05;;;0.73;;
71979;SDS011;59853;48.190;11.860;2022-09-06T11:40:40;2.10;;;0.90;;
71979;SDS011;59853;48.190;11.860;2022-09-06T11:43:08;4.25;;;1.00;;
71979;SDS011;59853;48.190;11.860;2022-09-06T11:45:57;3.22;;;1.00;;
71979;SDS011;59853;48.190;11.860;2022-09-06T11:53:21;2.88;;;1.02;;
71979;SDS011;59853;48.190;11.860;2022-09-06T11:55:50;1.63;;;0.90;;
71979;SDS011;59853;48.190;11.860;2022-09-06T12:08:46;2.38;;;0.95;;
71979;SDS011;59853;48.190;11.860;2022-09-06T12:11:32;2.45;;;1.17;;
71979;SDS011;59853;48.190;11.860;2022-09-06T12:19:43;3.83;;;1.20;;
71979;SDS011;59853;48.190;11.860;2022-09-06T12:24:59;3.17;;;1.30;;
71979;SDS011;59853;48.190;11.860;2022-09-06T12:27:38;2.45;;;0.98;;
71979;SDS011;59853;48.190;11.860;2022-09-06T12:30:28;3.72;;;1.10;;
71979;SDS011;59853;48.190;11.860;2022-09-06T12:32:56;2.03;;;1.00;;
71979;SDS011;59853;48.190;11.860;2022-09-06T12:35:26;2.78;;;0.90;;
71979;SDS011;59853;48.190;11.860;2022-09-06T12:40:28;3.97;;;1.73;;
71979;SDS011;59853;48.190;11.860;2022-09-06T12:42:58;4.05;;;1.60;;
71979;SDS011;59853;48.190;11.860;2022-09-06T12:45:24;2.25;;;0.95;;
71979;SDS011;59853;48.190;11.860;2022-09-06T12:47:49;3.72;;;1.20;;
71979;SDS011;59853;48.190;11.860;2022-09-06T12:50:23;2.22;;;1.08;;
71979;SDS011;59853;48.190;11.860;2022-09-06T12:52:51;4.68;;;1.13;;
71979;SDS011;59853;48.190;11.860;2022-09-06T12:55:25;2.67;;;1.30;;
71979;SDS011;59853;48.190;11.860;2022-09-06T12:57:52;3.95;;;1.30;;
71979;SDS011;59853;48.190;11.860;2022-09-06T13:00:22;3.38;;;1.13;;
71979;SDS011;59853;48.190;11.860;2022-09-06T13:02:54;5.55;;;1.17;;
71979;SDS011;59853;48.190;11.860;2022-09-06T13:05:22;5.75;;;1.30;;
71979;SDS011;59853;48.190;11.860;2022-09-06T13:07:49;4.20;;;1.25;;
71979;SDS011;59853;48.190;11.860;2022-09-06T13:10:18;3.70;;;1.20;;
71979;SDS011;59853;48.190;11.860;2022-09-06T13:12:46;2.70;;;1.23;;
71979;SDS011;59853;48.190;11.860;2022-09-06T13:15:27;4.03;;;1.08;;
71979;SDS011;59853;48.190;11.860;2022-09-06T13:18:18;5.10;;;1.20;;
71979;SDS011;59853;48.190;11.860;2022-09-06T13:20:42;3.45;;;1.30;;
71979;SDS011;59853;48.190;11.860;2022-09-06T13:23:09;3.08;;;1.13;;
71979;SDS011;59853;48.190;11.860;2022-09-06T13:25:48;5.55;;;1.20;;
71979;SDS011;59853;48.190;11.860;2022-09-06T13:30:59;4.10;;;1.25;;
71979;SDS011;59853;48.190;11.860;2022-09-06T13:33:27;2.97;;;1.20;;
71979;SDS011;59853;48.190;11.860;2022-09-06T13:36:06;3.55;;;1.20;;
71979;SDS011;59853;48.190;11.860;2022-09-06T13:38:39;3.22;;;1.30;;
71979;SDS011;59853;48.190;11.860;2022-09-06T13:44:06;4.82;;;1.50;;
71979;SDS011;59853;48.190;11.860;2022-09-06T13:46:45;3.72;;;1.23;;
71979;SDS011;59853;48.190;11.860;2022-09-06T13:49:10;3.80;;;1.25;;
71979;SDS011;59853;48.190;11.860;2022-09-06T13:51:36;2.63;;;1.17;;
71979;SDS011;59853;48.190;11.860;2022-09-06T13:54:06;2.55;;;1.10;;
71979;SDS011;59853;48.190;11.860;2022-09-06T13:56:34;3.47;;;1.23;;
71979;SDS011;59853;48.190;11.860;2022-09-06T13:58:59;4.47;;;1.67;;
71979;SDS011;59853;48.190;11.860;2022-09-06T14:01:25;3.35;;;1.30;;
71979;SDS011;59853;48.190;11.860;2022-09-06T14:03:50;3.28;;;1.17;;
71979;SDS011;59853;48.190;11.860;2022-09-06T14:06:16;3.72;;;1.27;;
71979;SDS011;59853;48.190;11.860;2022-09-06T14:08:42;3.90;;;1.20;;
71979;SDS011;59853;48.190;11.860;2022-09-06T14:11:07;3.53;;;1.50;;
71979;SDS011;59853;48.190;11.860;2022-09-06T14:13:33;4.82;;;1.40;;
71979;SDS011;59853;48.190;11.860;2022-09-06T14:15:58;3.70;;;1.40;;
71979;SDS011;59853;48.190;11.860;2022-09-06T14:18:24;4.50;;;1.10;;
71979;SDS011;59853;48.190;11.860;2022-09-06T14:20:50;5.57;;;1.40;;
71979;SDS011;59853;48.190;11.860;2022-09-06T14:23:16;3.90;;;1.50;;
71979;SDS011;59853;48.190;11.860;2022-09-06T14:25:41;7.05;;;1.50;;
71979;SDS011;59853;48.190;11.860;2022-09-06T14:28:07;5.45;;;1.65;;
71979;SDS011;59853;48.190;11.860;2022-09-06T14:30:32;6.40;;;1.67;;
71979;SDS011;59853;48.190;11.860;2022-09-06T14:32:57;5.82;;;1.55;;
71979;SDS011;59853;48.190;11.860;2022-09-06T14:35:23;4.32;;;1.30;;
71979;SDS011;59853;48.190;11.860;2022-09-06T14:37:48;5.95;;;1.63;;
71979;SDS011;59853;48.190;11.860;2022-09-06T14:40:14;7.25;;;1.60;;
71979;SDS011;59853;48.190;11.860;2022-09-06T14:42:40;6.32;;;1.30;;
71979;SDS011;59853;48.190;11.860;2022-09-06T14:45:05;6.47;;;1.67;;
71979;SDS011;59853;48.190;11.860;2022-09-06T14:47:31;9.90;;;2.00;;
71979;SDS011;59853;48.190;11.860;2022-09-06T14:49:57;5.90;;;1.58;;
71979;SDS011;59853;48.190;11.860;2022-09-06T14:52:23;2.58;;;1.30;;
71979;SDS011;59853;48.190;11.860;2022-09-06T14:54:48;6.25;;;1.52;;
71979;SDS011;59853;48.190;11.860;2022-09-06T14:57:13;8.50;;;1.77;;
71979;SDS011;59853;48.190;11.860;2022-09-06T14:59:39;4.63;;;1.30;;
71979;SDS011;59853;48.190;11.860;2022-09-06T15:02:05;6.78;;;1.52;;
71979;SDS011;59853;48.190;11.860;2022-09-06T15:04:31;4.72;;;1.65;;
71979;SDS011;59853;48.190;11.860;2022-09-06T15:06:57;4.82;;;1.45;;
71979;SDS011;59853;48.190;11.860;2022-09-06T15:09:23;5.40;;;1.50;;
71979;SDS011;59853;48.190;11.860;2022-09-06T15:11:48;8.63;;;1.75;;
71979;SDS011;59853;48.190;11.860;2022-09-06T15:16:45;8.10;;;1.80;;
71979;SDS011;59853;48.190;11.860;2022-09-06T15:19:11;4.15;;;1.30;;
71979;SDS011;59853;48.190;11.860;2022-09-06T15:21:36;7.15;;;1.88;;
71979;SDS011;59853;48.190;11.860;2022-09-06T15:24:02;7.30;;;2.00;;
71979;SDS011;59853;48.190;11.860;2022-09-06T15:26:28;6.65;;;2.10;;
71979;SDS011;59853;48.190;11.860;2022-09-06T15:28:54;5.30;;;1.50;;
71979;SDS011;59853;48.190;11.860;2022-09-06T15:31:19;5.30;;;1.70;;
71979;SDS011;59853;48.190;11.860;2022-09-06T15:33:45;4.35;;;1.70;;
71979;SDS011;59853;48.190;11.860;2022-09-06T15:36:13;5.25;;;1.60;;
71979;SDS011;59853;48.190;11.860;2022-09-06T15:38:40;6.95;;;1.85;;
71979;SDS011;59853;48.190;11.860;2022-09-06T15:41:13;5.20;;;1.52;;
71979;SDS011;59853;48.190;11.860;2022-09-06T15:43:41;8.60;;;2.08;;
71979;SDS011;59853;48.190;11.860;2022-09-06T15:46:11;6.03;;;2.03;;
71979;SDS011;59853;48.190;11.860;2022-09-06T15:48:41;6.30;;;1.52;;
71979;SDS011;59853;48.190;11.860;2022-09-06T15:51:08;5.13;;;1.65;;
71979;SDS011;59853;48.190;11.860;2022-09-06T15:53:34;12.63;;;1.63;;
71979;SDS011;59853;48.190;11.860;2022-09-06T15:56:00;8.30;;;1.90;;
71979;SDS011;59853;48.190;11.860;2022-09-06T15:58:26;6.60;;;1.65;;
71979;SDS011;59853;48.190;11.860;2022-09-06T16:01:02;8.57;;;1.50;;
71979;SDS011;59853;48.190;11.860;2022-09-06T16:03:36;4.80;;;1.90;;
71979;SDS011;59853;48.190;11.860;2022-09-06T16:06:09;7.43;;;2.13;;
71979;SDS011;59853;48.190;11.860;2022-09-06T16:08:48;7.15;;;2.00;;
71979;SDS011;59853;48.190;11.860;2022-09-06T16:11:17;7.03;;;1.67;;
71979;SDS011;59853;48.190;11.860;2022-09-06T16:13:43;7.03;;;2.10;;
71979;SDS011;59853;48.190;11.860;2022-09-06T16:16:10;5.15;;;1.50;;
71979;SDS011;59853;48.190;11.860;2022-09-06T16:18:38;5.50;;;1.70;;
71979;SDS011;59853;48.190;11.860;2022-09-06T16:23:32;5.85;;;1.80;;
71979;SDS011;59853;48.190;11.860;2022-09-06T16:25:57;7.75;;;1.60;;
71979;SDS011;59853;48.190;11.860;2022-09-06T16:28:25;6.63;;;1.63;;
71979;SDS011;59853;48.190;11.860;2022-09-06T16:30:51;4.43;;;1.65;;
71979;SDS011;59853;48.190;11.860;2022-09-06T16:33:17;6.65;;;1.88;;
71979;SDS011;59853;48.190;11.860;2022-09-06T16:35:42;6.07;;;1.92;;